Time;durP1;ratioP1;P1;durP2;ratioP2;P2;SDS_P1;SDS_P2;PMS_P1;PMS_P2;Temp;Humidity;BMP_temperature;BMP_pressure;BME280_temperature;BME280_humidity;BME280_pressure;Samples;Min_cycle;Max_cycle;Signal;HPM_P1;HPM_P2
2021/08/15 00:01:44;;;;;;;5.93;4.30;;;19.70;99.90;;;;;;4378070;32;20085;-70
2021/08/15 00:04:10;;;;;;;5.47;4.07;;;19.70;99.90;;;;;;4353393;32;20130;-71
2021/08/15 00:06:36;;;;;;;5.70;4.10;;;19.70;99.90;;;;;;4366013;32;20080;-70
2021/08/15 00:09:03;;;;;;;7.68;3.62;;;19.70;99.90;;;;;;4353188;32;20153;-70
2021/08/15 00:11:29;;;;;;;7.55;4.30;;;19.70;99.90;;;;;;4353096;32;20084;-71
2021/08/15 00:13:55;;;;;;;5.57;3.58;;;19.70;99.90;;;;;;4365736;32;20096;-71
2021/08/15 00:16:22;;;;;;;6.78;3.97;;;19.70;99.90;;;;;;4353328;32;20066;-71
2021/08/15 00:18:48;;;;;;;6.85;3.90;;;19.70;99.90;;;;;;4365519;32;20297;-70
2021/08/15 00:21:14;;;;;;;7.62;3.75;;;19.70;99.90;;;;;;4365341;32;20078;-71
2021/08/15 00:23:41;;;;;;;8.30;4.10;;;19.70;99.90;;;;;;4340603;32;20531;-71
2021/08/15 00:26:07;;;;;;;7.53;4.10;;;19.80;99.90;;;;;;4341170;32;20503;-71
2021/08/15 00:28:33;;;;;;;5.07;3.92;;;19.70;99.90;;;;;;4377507;32;20080;-71
2021/08/15 00:30:59;;;;;;;6.37;3.83;;;19.70;99.90;;;;;;4377908;32;20085;-70
2021/08/15 00:33:25;;;;;;;6.50;3.72;;;19.70;99.90;;;;;;4328807;32;20085;-71
2021/08/15 00:35:51;;;;;;;6.95;3.90;;;19.80;99.90;;;;;;4365212;32;20132;-71
2021/08/15 00:38:17;;;;;;;6.70;3.75;;;19.80;99.90;;;;;;4353498;32;20061;-71
2021/08/15 00:40:44;;;;;;;5.28;3.55;;;19.80;99.90;;;;;;4352518;32;20157;-70
2021/08/15 00:43:10;;;;;;;5.50;3.62;;;19.90;99.90;;;;;;4365243;32;20070;-71
2021/08/15 00:45:36;;;;;;;7.37;3.15;;;19.90;99.90;;;;;;4352966;32;20074;-71
2021/08/15 00:48:12;;;;;;;5.43;3.22;;;19.90;99.90;;;;;;4365022;32;20085;-70
2021/08/15 00:50:38;;;;;;;5.57;3.70;;;20.00;99.90;;;;;;4352990;32;20514;-71
2021/08/15 00:53:05;;;;;;;5.50;3.55;;;20.00;99.90;;;;;;4365037;32;20070;-71
2021/08/15 00:55:33;;;;;;;4.85;3.33;;;20.00;99.90;;;;;;4365934;32;20160;-71
2021/08/15 00:57:59;;;;;;;6.10;3.75;;;20.00;99.90;;;;;;4340638;32;20077;-71
2021/08/15 01:00:25;;;;;;;6.57;3.75;;;20.00;99.90;;;;;;4340337;32;20062;-71
2021/08/15 01:02:51;;;;;;;6.22;3.67;;;19.90;99.90;;;;;;4364905;32;20114;-71
2021/08/15 01:05:18;;;;;;;6.18;3.83;;;19.90;99.90;;;;;;4352766;32;20062;-71
2021/08/15 01:07:44;;;;;;;6.87;4.03;;;19.90;99.90;;;;;;4391441;32;20518;-71
2021/08/15 01:10:17;;;;;;;4.57;3.45;;;20.00;99.90;;;;;;4365533;32;20073;-71
2021/08/15 01:12:46;;;;;;;6.90;3.87;;;20.00;99.90;;;;;;4365063;32;20102;-70
2021/08/15 01:15:13;;;;;;;5.12;3.35;;;20.00;99.90;;;;;;4352815;32;20088;-70
2021/08/15 01:17:40;;;;;;;4.80;3.58;;;20.00;99.90;;;;;;4340474;32;20070;-71
2021/08/15 01:20:08;;;;;;;6.05;3.47;;;20.00;99.90;;;;;;4352985;32;20078;-71
2021/08/15 01:22:37;;;;;;;5.35;3.83;;;19.80;99.90;;;;;;4365578;32;20166;-71
2021/08/15 01:25:05;;;;;;;4.70;3.65;;;19.90;99.90;;;;;;4353464;32;20106;-71
2021/08/15 01:27:38;;;;;;;5.78;3.97;;;19.80;99.90;;;;;;4341043;32;20062;-71
2021/08/15 01:30:07;;;;;;;5.80;3.50;;;19.80;99.90;;;;;;4352835;32;20424;-71
2021/08/15 01:32:33;;;;;;;6.12;4.05;;;19.80;99.90;;;;;;4364906;32;20154;-71
2021/08/15 01:35:02;;;;;;;7.10;3.83;;;19.80;99.90;;;;;;4352839;32;20174;-71
2021/08/15 01:37:28;;;;;;;5.68;3.85;;;19.80;99.90;;;;;;4353819;32;20156;-71
2021/08/15 01:39:58;;;;;;;5.22;3.70;;;19.80;99.90;;;;;;4353364;32;20077;-70
2021/08/15 01:42:24;;;;;;;4.85;3.47;;;19.80;99.90;;;;;;4368291;32;20170;-71
2021/08/15 01:44:50;;;;;;;6.53;3.72;;;19.70;99.90;;;;;;4367753;32;20169;-71
2021/08/15 01:47:17;;;;;;;5.97;3.80;;;19.70;99.90;;;;;;4355300;32;20074;-71
2021/08/15 01:49:43;;;;;;;6.55;4.00;;;19.70;99.90;;;;;;4393827;32;20065;-71
2021/08/15 01:52:09;;;;;;;6.45;4.53;;;19.60;99.90;;;;;;4367870;32;20074;-70
2021/08/15 01:54:36;;;;;;;5.87;4.18;;;19.60;99.90;;;;;;4367949;32;20536;-70
2021/08/15 01:57:02;;;;;;;6.62;4.37;;;19.60;99.90;;;;;;4355339;32;20429;-71
2021/08/15 01:59:28;;;;;;;5.28;3.75;;;19.50;99.90;;;;;;4379945;32;20088;-71
2021/08/15 02:01:59;;;;;;;5.90;4.40;;;19.50;99.90;;;;;;4355007;32;20136;-71
2021/08/15 02:04:25;;;;;;;6.78;4.47;;;19.40;99.90;;;;;;4368356;32;20070;-71
2021/08/15 02:06:51;;;;;;;8.50;6.28;;;19.40;99.90;;;;;;4367433;32;20111;-70
2021/08/15 02:09:17;;;;;;;12.15;7.53;;;19.30;99.90;;;;;;4380107;32;20081;-70
2021/08/15 02:11:43;;;;;;;13.00;7.37;;;19.30;99.90;;;;;;4367772;32;20086;-70
2021/08/15 02:14:09;;;;;;;10.63;7.10;;;19.30;99.90;;;;;;4355460;32;20089;-70
2021/08/15 02:16:36;;;;;;;13.10;7.90;;;19.20;99.90;;;;;;4367809;32;20073;-71
2021/08/15 02:19:02;;;;;;;11.82;7.62;;;19.10;99.90;;;;;;4379758;32;20150;-70
2021/08/15 02:21:29;;;;;;;8.80;6.35;;;19.20;99.90;;;;;;4354902;32;20512;-70
2021/08/15 02:23:55;;;;;;;11.43;6.12;;;19.10;99.90;;;;;;4379489;32;20090;-71
2021/08/15 02:26:22;;;;;;;11.68;5.60;;;19.10;99.90;;;;;;4367175;32;20166;-70
2021/08/15 02:28:48;;;;;;;8.18;4.95;;;19.00;99.90;;;;;;4379417;32;20147;-70
2021/08/15 02:31:14;;;;;;;6.07;4.60;;;19.00;99.90;;;;;;4379991;32;20092;-71
2021/08/15 02:33:40;;;;;;;8.40;4.50;;;19.00;99.90;;;;;;4379787;32;20604;-71
2021/08/15 02:36:07;;;;;;;7.75;6.05;;;19.00;99.90;;;;;;4355073;32;20438;-70
2021/08/15 02:38:33;;;;;;;7.32;4.85;;;19.00;99.90;;;;;;4330770;32;20084;-71
2021/08/15 02:40:59;;;;;;;7.65;5.30;;;19.10;99.90;;;;;;4379536;32;20066;-69
2021/08/15 02:43:25;;;;;;;8.77;5.18;;;19.10;99.90;;;;;;4367592;32;20111;-71
2021/08/15 02:45:51;;;;;;;7.62;4.80;;;19.10;99.90;;;;;;4379189;32;20093;-70
2021/08/15 02:48:17;;;;;;;8.30;5.03;;;19.10;99.90;;;;;;4379633;32;20093;-70
2021/08/15 02:50:44;;;;;;;7.12;5.30;;;19.10;99.90;;;;;;4393192;32;20090;-71
2021/08/15 02:53:10;;;;;;;7.03;4.80;;;19.10;99.90;;;;;;4393128;32;20080;-70
2021/08/15 02:55:36;;;;;;;5.72;4.22;;;19.10;99.90;;;;;;4367136;32;20078;-70
2021/08/15 02:58:03;;;;;;;6.28;4.10;;;19.20;99.90;;;;;;4366800;32;20073;-71
2021/08/15 03:00:29;;;;;;;7.30;4.35;;;19.10;99.90;;;;;;4342431;32;20082;-71
2021/08/15 03:02:55;;;;;;;6.65;4.68;;;19.20;99.90;;;;;;4366948;32;20572;-71
2021/08/15 03:05:22;;;;;;;7.65;4.20;;;19.30;99.90;;;;;;4354707;32;20145;-71
2021/08/15 03:07:48;;;;;;;5.20;4.20;;;19.20;99.90;;;;;;4342292;32;20105;-71
2021/08/15 03:10:14;;;;;;;6.15;4.32;;;19.20;99.90;;;;;;4366568;32;20459;-71
2021/08/15 03:12:40;;;;;;;7.70;4.35;;;19.20;99.90;;;;;;4354447;32;20128;-70
2021/08/15 03:15:07;;;;;;;5.72;4.12;;;19.10;99.90;;;;;;4366808;32;20156;-69
2021/08/15 03:17:33;;;;;;;6.25;4.82;;;19.10;99.90;;;;;;4342551;32;20077;-70
2021/08/15 03:20:00;;;;;;;7.43;4.70;;;19.20;99.90;;;;;;4379304;32;20081;-70
2021/08/15 03:22:26;;;;;;;7.80;4.30;;;19.20;99.90;;;;;;4354460;32;20085;-71
2021/08/15 03:24:52;;;;;;;5.90;4.05;;;19.10;99.90;;;;;;4366321;32;20080;-71
2021/08/15 03:27:18;;;;;;;7.53;4.47;;;19.20;99.90;;;;;;4353954;32;20082;-70
2021/08/15 03:29:44;;;;;;;5.95;3.70;;;19.20;99.90;;;;;;4354168;32;20545;-70
2021/08/15 03:32:11;;;;;;;7.97;4.12;;;19.30;99.90;;;;;;4354158;32;20093;-71
2021/08/15 03:34:37;;;;;;;6.25;4.22;;;19.30;99.90;;;;;;4378915;32;20500;-71
2021/08/15 03:37:03;;;;;;;5.75;4.00;;;19.40;99.90;;;;;;4379031;32;20069;-71
2021/08/15 03:39:30;;;;;;;6.97;3.85;;;19.40;99.90;;;;;;4354099;32;20074;-70
2021/08/15 03:41:58;;;;;;;6.55;3.95;;;19.20;99.90;;;;;;4366110;32;20505;-71
2021/08/15 03:44:29;;;;;;;7.00;4.47;;;19.20;99.90;;;;;;4342471;32;20088;-70
2021/08/15 03:46:56;;;;;;;6.65;4.10;;;19.20;99.90;;;;;;4366527;32;20073;-69
2021/08/15 03:49:22;;;;;;;5.82;4.37;;;19.20;99.90;;;;;;4353971;32;20078;-71
2021/08/15 03:51:48;;;;;;;7.32;4.43;;;19.00;99.90;;;;;;4366174;32;20070;-70
2021/08/15 03:54:19;;;;;;;8.75;5.12;;;19.10;99.90;;;;;;4353736;32;20089;-70
2021/08/15 04:29:24;;;;;;;8.40;5.40;;;19.00;99.90;;;;;;4373476;32;20440;-71
2021/08/15 04:31:50;;;;;;;9.35;5.43;;;19.30;99.90;;;;;;4365514;32;20511;-71
2021/08/15 04:34:16;;;;;;;9.77;5.30;;;19.40;99.90;;;;;;4392883;32;20078;-71
2021/08/15 04:36:43;;;;;;;8.80;5.70;;;19.30;99.90;;;;;;4354374;32;20100;-71
2021/08/15 04:39:09;;;;;;;8.48;5.65;;;19.40;99.90;;;;;;4364355;32;20064;-71
2021/08/15 04:41:35;;;;;;;6.95;5.25;;;19.30;99.90;;;;;;4393002;32;20083;-71
2021/08/15 04:44:01;;;;;;;6.35;4.45;;;19.20;99.90;;;;;;4393408;32;20069;-71
2021/08/15 04:46:27;;;;;;;8.38;5.60;;;19.30;99.90;;;;;;4406739;32;20089;-72
2021/08/15 04:48:54;;;;;;;8.50;5.20;;;19.30;99.90;;;;;;4404312;32;20090;-70
2021/08/15 04:51:20;;;;;;;6.10;4.68;;;19.40;99.90;;;;;;4368696;32;20115;-71
2021/08/15 04:53:46;;;;;;;7.07;4.95;;;19.50;99.90;;;;;;4367379;32;20496;-70
2021/08/15 04:56:12;;;;;;;7.47;4.97;;;19.40;99.90;;;;;;4379167;32;20089;-71
2021/08/15 04:58:38;;;;;;;9.88;5.45;;;19.50;99.90;;;;;;4352964;32;20168;-71
2021/08/15 05:01:05;;;;;;;6.90;4.30;;;19.50;99.90;;;;;;4365096;32;20078;-71
2021/08/15 05:03:31;;;;;;;7.60;4.10;;;19.60;99.90;;;;;;4352639;32;20089;-70
2021/08/15 05:05:58;;;;;;;6.82;4.62;;;19.60;99.90;;;;;;4365776;32;20096;-69
2021/08/15 05:08:24;;;;;;;7.95;4.50;;;19.80;99.90;;;;;;4340662;32;20166;-71
2021/08/15 05:10:51;;;;;;;7.35;5.40;;;19.80;99.90;;;;;;4377905;32;20511;-70
2021/08/15 05:13:17;;;;;;;8.15;5.25;;;19.70;99.90;;;;;;4365356;32;20082;-70
2021/08/15 05:15:43;;;;;;;7.40;5.57;;;19.80;99.90;;;;;;4364712;32;20457;-70
2021/08/15 05:18:10;;;;;;;6.45;4.80;;;19.30;99.90;;;;;;4352663;32;20089;-71
2021/08/15 05:20:36;;;;;;;7.37;4.65;;;19.20;99.90;;;;;;4352920;32;20096;-70
2021/08/15 05:23:02;;;;;;;6.22;4.90;;;19.80;99.90;;;;;;4377264;32;20081;-70
2021/08/15 05:25:28;;;;;;;5.78;4.37;;;20.00;99.90;;;;;;4364958;32;20078;-71
2021/08/15 05:27:54;;;;;;;7.45;4.55;;;20.20;99.90;;;;;;4352786;32;20093;-71
2021/08/15 05:30:21;;;;;;;6.12;4.37;;;20.10;99.90;;;;;;4352442;32;20165;-69
2021/08/15 05:32:47;;;;;;;7.00;4.68;;;20.40;99.90;;;;;;4352727;32;20074;-71
2021/08/15 05:35:13;;;;;;;5.97;3.95;;;20.50;99.90;;;;;;4377237;32;20472;-70
2021/08/15 05:37:40;;;;;;;7.85;4.30;;;20.40;99.90;;;;;;4352800;32;20425;-70
2021/08/15 05:40:07;;;;;;;6.87;4.90;;;20.70;99.90;;;;;;4340593;32;20084;-70
2021/08/15 05:42:33;;;;;;;8.40;5.28;;;20.70;99.90;;;;;;4364952;32;20257;-70
2021/08/15 05:44:59;;;;;;;8.23;5.32;;;20.30;99.90;;;;;;4340823;32;20089;-72
2021/08/15 05:47:26;;;;;;;7.32;4.37;;;20.40;99.90;;;;;;4352820;32;20096;-70
2021/08/15 05:49:52;;;;;;;9.00;4.22;;;20.30;99.90;;;;;;4364685;32;20101;-70
2021/08/15 05:52:18;;;;;;;5.82;4.25;;;20.50;99.90;;;;;;4364875;32;20077;-71
2021/08/15 05:54:44;;;;;;;5.75;4.15;;;20.70;99.90;;;;;;4340435;32;20134;-71
2021/08/15 05:57:10;;;;;;;5.57;4.03;;;20.80;99.90;;;;;;4376939;32;20534;-71
2021/08/15 05:59:36;;;;;;;6.65;4.47;;;20.90;99.90;;;;;;4364973;32;20109;-71
2021/08/15 06:02:03;;;;;;;6.60;4.22;;;20.70;99.90;;;;;;4352243;32;20520;-71
2021/08/15 06:04:29;;;;;;;6.28;4.43;;;20.90;99.90;;;;;;4376803;32;20162;-70
2021/08/15 06:06:55;;;;;;;6.40;4.72;;;20.90;99.90;;;;;;4364780;32;20150;-71
2021/08/15 06:09:22;;;;;;;5.45;4.35;;;21.10;99.90;;;;;;4352513;32;20074;-69
2021/08/15 06:11:49;;;;;;;8.02;4.80;;;21.50;99.90;;;;;;4365061;32;20586;-70
2021/08/15 06:14:16;;;;;;;7.90;5.05;;;21.00;99.90;;;;;;4365004;32;20161;-71
2021/08/15 06:16:42;;;;;;;9.48;4.95;;;21.40;99.90;;;;;;4352933;32;20103;-70
2021/08/15 06:19:08;;;;;;;5.72;4.15;;;21.30;99.90;;;;;;4340410;32;20145;-71
2021/08/15 06:21:35;;;;;;;10.40;5.07;;;21.60;99.90;;;;;;4377720;32;20089;-71
2021/08/15 06:24:01;;;;;;;9.52;6.10;;;21.50;99.90;;;;;;4378642;32;20086;-73
2021/08/15 06:26:28;;;;;;;10.50;6.00;;;21.30;99.90;;;;;;4379587;32;20521;-72
2021/08/15 06:28:55;;;;;;;8.48;5.28;;;21.60;99.90;;;;;;4381791;32;20077;-71
2021/08/15 06:31:23;;;;;;;8.90;5.03;;;21.60;99.90;;;;;;4331943;32;20081;-70
2021/08/15 06:33:50;;;;;;;8.45;5.22;;;22.30;99.90;;;;;;4356750;32;20086;-70
2021/08/15 06:36:16;;;;;;;11.18;7.20;;;22.20;99.90;;;;;;4367410;32;20141;-71
2021/08/15 06:38:43;;;;;;;13.27;7.45;;;21.90;99.90;;;;;;4343070;32;20078;-70
2021/08/15 06:41:09;;;;;;;10.40;6.30;;;22.10;99.90;;;;;;4354882;32;20093;-70
2021/08/15 06:43:36;;;;;;;13.85;7.50;;;21.90;99.90;;;;;;4355070;32;20507;-71
2021/08/15 06:46:02;;;;;;;12.30;5.65;;;21.80;99.90;;;;;;4367496;32;20085;-70
2021/08/15 06:48:28;;;;;;;9.95;5.97;;;22.50;99.90;;;;;;4366950;32;20153;-71
2021/08/15 06:50:58;;;;;;;10.77;7.37;;;22.70;99.90;;;;;;4379326;32;20082;-70
2021/08/15 06:53:27;;;;;;;10.35;6.35;;;22.40;99.90;;;;;;4379351;32;20077;-70
2021/08/15 06:55:53;;;;;;;11.10;6.30;;;22.00;99.90;;;;;;4355186;32;20073;-71
2021/08/15 06:58:19;;;;;;;10.38;6.72;;;22.50;99.90;;;;;;4367061;32;20230;-71
2021/08/15 07:00:45;;;;;;;11.73;7.15;;;22.20;99.90;;;;;;4354283;32;20083;-70
2021/08/15 07:03:12;;;;;;;9.98;6.30;;;22.40;99.90;;;;;;4366415;32;20085;-70
2021/08/15 07:05:38;;;;;;;10.80;6.03;;;22.60;99.90;;;;;;4366519;32;20517;-70
2021/08/15 07:08:04;;;;;;;9.93;5.85;;;23.00;99.90;;;;;;4354400;32;20066;-71
2021/08/15 07:10:31;;;;;;;10.18;7.07;;;22.70;99.90;;;;;;4393084;32;20112;-71
2021/08/15 07:12:58;;;;;;;12.37;7.03;;;22.40;99.90;;;;;;4366851;32;20170;-70
2021/08/15 07:15:28;;;;;;;11.73;6.50;;;22.50;99.90;;;;;;4367046;32;20086;-69
2021/08/15 07:17:55;;;;;;;13.18;7.10;;;22.80;99.90;;;;;;4342922;32;20166;-71
2021/08/15 07:20:22;;;;;;;12.90;6.95;;;23.00;99.90;;;;;;4366684;32;20097;-71
2021/08/15 07:22:49;;;;;;;12.50;7.15;;;22.90;99.90;;;;;;4354408;32;20158;-71
2021/08/15 07:25:16;;;;;;;12.93;6.78;;;23.10;99.90;;;;;;4366816;32;20516;-70
2021/08/15 07:27:43;;;;;;;10.40;5.82;;;23.30;99.90;;;;;;4354437;32;20081;-71
2021/08/15 07:30:09;;;;;;;16.75;8.18;;;23.10;99.90;;;;;;4366460;32;20066;-70
2021/08/15 07:32:36;;;;;;;11.90;6.97;;;22.80;99.90;;;;;;4341688;32;20106;-70
2021/08/15 07:35:02;;;;;;;10.15;6.75;;;23.00;99.90;;;;;;4354451;32;20085;-71
2021/08/15 07:37:29;;;;;;;13.13;7.90;;;23.10;99.90;;;;;;4353629;32;20509;-70
2021/08/15 07:39:55;;;;;;;10.95;7.80;;;22.90;99.90;;;;;;4341877;32;20085;-70
2021/08/15 07:42:21;;;;;;;9.27;6.25;;;22.70;99.90;;;;;;4378339;32;20228;-71
2021/08/15 07:44:48;;;;;;;11.12;6.65;;;22.90;99.90;;;;;;4365841;32;20100;-71
2021/08/15 07:47:14;;;;;;;9.27;6.93;;;23.00;99.90;;;;;;4378331;32;20078;-72
2021/08/15 07:49:40;;;;;;;16.27;7.90;;;22.80;99.90;;;;;;4365866;32;20061;-71
2021/08/15 07:52:06;;;;;;;10.63;7.57;;;23.00;99.90;;;;;;4378296;32;20540;-70
2021/08/15 07:54:33;;;;;;;12.60;7.47;;;23.00;99.90;;;;;;4341736;32;20057;-71
2021/08/15 07:56:59;;;;;;;13.43;7.20;;;23.30;99.90;;;;;;4378304;32;20065;-70
2021/08/15 07:59:25;;;;;;;10.82;6.85;;;23.60;99.90;;;;;;4378232;32;20125;-70
2021/08/15 08:01:51;;;;;;;11.07;6.47;;;23.60;99.90;;;;;;4365544;32;20078;-70
2021/08/15 08:04:18;;;;;;;11.00;6.28;;;24.00;99.90;;;;;;4365817;32;20103;-70
2021/08/15 08:06:44;;;;;;;9.55;6.12;;;24.00;99.90;;;;;;4365734;32;20120;-71
2021/08/15 08:09:10;;;;;;;9.90;6.55;;;23.90;99.90;;;;;;4353163;32;20078;-70
2021/08/15 08:11:36;;;;;;;8.90;6.20;;;24.30;99.90;;;;;;4353783;32;20155;-70
2021/08/15 08:14:03;;;;;;;11.00;6.85;;;24.50;99.90;;;;;;4378513;32;20499;-70
2021/08/15 08:16:29;;;;;;;10.85;6.57;;;24.60;99.90;;;;;;4353217;32;20069;-71
2021/08/15 08:18:55;;;;;;;10.50;7.45;;;24.50;99.90;;;;;;4378034;32;20080;-70
2021/08/15 08:21:21;;;;;;;10.80;7.50;;;24.30;99.90;;;;;;4378273;32;20452;-70
2021/08/15 08:23:48;;;;;;;13.80;6.60;;;24.20;99.90;;;;;;4329091;32;20073;-71
2021/08/15 08:26:14;;;;;;;10.55;6.37;;;24.60;99.90;;;;;;4391842;32;20080;-71
2021/08/15 08:28:40;;;;;;;11.07;7.15;;;24.90;99.90;;;;;;4377978;32;20193;-70
2021/08/15 08:31:06;;;;;;;11.00;7.18;;;25.20;99.90;;;;;;4377595;32;20154;-71
2021/08/15 08:33:33;;;;;;;10.90;7.50;;;24.50;99.90;;;;;;4391447;32;20069;-70
2021/08/15 08:36:00;;;;;;;11.70;7.82;;;24.70;99.90;;;;;;4365542;32;20096;-71
2021/08/15 08:38:26;;;;;;;14.93;8.77;;;25.00;99.90;;;;;;4365981;32;20077;-71
2021/08/15 08:40:54;;;;;;;14.18;7.53;;;24.90;99.90;;;;;;4377547;32;20069;-71
2021/08/15 08:43:21;;;;;;;15.95;9.20;;;25.20;99.90;;;;;;4340566;32;20516;-70
2021/08/15 08:45:47;;;;;;;13.80;8.85;;;25.20;99.80;;;;;;4377818;32;20066;-71
2021/08/15 08:48:15;;;;;;;20.27;10.25;;;24.90;99.90;;;;;;4340596;32;20462;-71
2021/08/15 08:50:42;;;;;;;18.12;10.00;;;24.70;99.80;;;;;;4353325;32;20561;-71
2021/08/15 08:53:08;;;;;;;16.12;9.32;;;25.00;98.30;;;;;;4365057;32;20512;-71
2021/08/15 08:55:34;;;;;;;15.40;9.30;;;25.10;99.80;;;;;;4365611;32;20078;-71
2021/08/15 08:58:00;;;;;;;16.67;9.50;;;25.50;96.50;;;;;;4340750;32;20093;-71
2021/08/15 09:00:26;;;;;;;16.42;7.72;;;25.90;91.80;;;;;;4340136;32;20093;-71
2021/08/15 09:02:59;;;;;;;17.40;9.48;;;26.60;91.20;;;;;;4377248;32;20216;-71
2021/08/15 09:05:33;;;;;;;16.42;10.40;;;26.80;90.00;;;;;;4340908;32;20070;-71
2021/08/15 09:08:00;;;;;;;21.75;10.93;;;27.20;82.50;;;;;;4341025;32;20096;-71
2021/08/15 09:10:36;;;;;;;27.15;13.20;;;27.30;80.60;;;;;;4352938;32;20073;-71
2021/08/15 09:13:05;;;;;;;28.73;13.55;;;26.50;80.80;;;;;;4354560;32;20497;-72
2021/08/15 09:15:32;;;;;;;27.90;13.15;;;26.20;86.50;;;;;;4341842;32;20092;-71
2021/08/15 09:17:58;;;;;;;29.12;14.93;;;27.00;81.40;;;;;;4340834;32;20161;-70
2021/08/15 09:20:43;;;;;;;27.58;13.45;;;26.40;75.30;;;;;;4353238;32;20084;-71
2021/08/15 09:23:28;;;;;;;31.30;15.35;;;26.20;74.50;;;;;;4355423;32;20074;-71
2021/08/15 09:26:21;;;;;;;27.05;13.45;;;26.60;78.10;;;;;;4365099;32;20522;-70
2021/08/15 09:28:49;;;;;;;27.27;15.27;;;27.30;75.40;;;;;;4364741;32;20154;-71
2021/08/15 09:31:31;;;;;;;30.08;14.52;;;26.50;76.70;;;;;;4352752;32;20100;-71
2021/08/15 09:34:00;;;;;;;35.58;16.77;;;26.90;78.50;;;;;;4364922;32;20089;-71
2021/08/15 09:36:31;;;;;;;33.88;15.07;;;27.10;81.50;;;;;;4365549;32;20645;-71
2021/08/15 09:39:00;;;;;;;24.92;13.35;;;27.90;72.60;;;;;;4365010;32;20147;-70
2021/08/15 09:41:31;;;;;;;21.90;12.63;;;28.10;66.30;;;;;;4353388;32;20080;-71
2021/08/15 09:44:24;;;;;;;25.50;14.95;;;27.80;66.30;;;;;;4352719;32;20069;-70
2021/08/15 09:47:09;;;;;;;23.95;13.77;;;27.80;64.70;;;;;;4342172;32;20066;-70
2021/08/15 09:49:43;;;;;;;22.42;12.90;;;27.30;60.50;;;;;;4340902;32;20131;-71
2021/08/15 09:52:15;;;;;;;19.65;13.65;;;27.50;60.40;;;;;;4353540;32;20124;-71
2021/08/15 09:54:52;;;;;;;21.83;14.07;;;27.70;59.60;;;;;;4352794;32;20078;-71
2021/08/15 09:57:32;;;;;;;21.55;14.25;;;27.40;60.30;;;;;;4378534;32;20531;-71
2021/08/15 09:59:58;;;;;;;19.17;11.27;;;27.80;58.40;;;;;;4365424;32;20086;-71
2021/08/15 10:02:25;;;;;;;15.77;8.88;;;27.60;57.50;;;;;;4366262;32;20524;-71
2021/08/15 10:04:54;;;;;;;19.37;9.30;;;27.80;56.30;;;;;;4367872;32;20447;-71
2021/08/15 10:07:20;;;;;;;17.83;9.80;;;28.20;52.50;;;;;;4380504;32;20078;-70
2021/08/15 10:09:47;;;;;;;16.42;9.00;;;28.00;51.80;;;;;;4343310;32;20077;-71
2021/08/15 10:12:13;;;;;;;13.30;7.47;;;27.70;53.80;;;;;;4343125;32;20080;-70
2021/08/15 10:14:39;;;;;;;12.90;8.63;;;27.70;53.70;;;;;;4354788;32;20090;-71
2021/08/15 10:17:11;;;;;;;19.65;10.57;;;27.90;52.40;;;;;;4355324;32;20066;-71
2021/08/15 10:19:58;;;;;;;15.50;9.25;;;28.30;51.20;;;;;;4355430;32;20077;-71
2021/08/15 10:22:34;;;;;;;13.40;8.85;;;28.80;49.60;;;;;;4344518;32;20145;-71
2021/08/15 10:25:05;;;;;;;20.30;10.88;;;29.20;47.90;;;;;;4357430;32;20070;-71
2021/08/15 10:27:41;;;;;;;15.50;9.57;;;29.20;47.10;;;;;;4343240;32;20089;-70
2021/08/15 10:30:17;;;;;;;17.27;10.25;;;29.00;45.50;;;;;;4367124;32;20093;-71
2021/08/15 10:33:03;;;;;;;19.27;10.55;;;28.80;45.80;;;;;;4379882;32;20077;-70
2021/08/15 10:35:36;;;;;;;;;;;29.00;44.40;;;;;;4354895;32;20070;-70
2021/08/15 10:38:17;;;;;;;20.08;9.90;;;28.60;40.30;;;;;;4367325;32;19983;-71
2021/08/15 10:40:47;;;;;;;18.60;9.95;;;29.30;36.70;;;;;;4393337;32;20142;-71
2021/08/15 10:43:23;;;;;;;17.65;10.00;;;29.20;37.50;;;;;;4367215;32;20063;-71
2021/08/15 10:49:00;;;;;;;18.52;9.63;;;28.70;43.40;;;;;;3857412;37;20058;-70
2021/08/15 10:51:48;;;;;;;16.10;9.20;;;28.70;46.20;;;;;;4394549;32;20477;-71
2021/08/15 10:54:26;;;;;;;15.55;9.25;;;28.70;46.70;;;;;;4407068;32;20071;-71
2021/08/15 10:57:04;;;;;;;16.55;8.82;;;29.10;47.60;;;;;;4419808;32;20070;-70
2021/08/15 10:59:39;;;;;;;12.10;7.22;;;29.10;49.10;;;;;;4405864;32;20089;-71
2021/08/15 11:02:16;;;;;;;15.70;8.10;;;29.40;50.10;;;;;;4390349;32;20084;-71
2021/08/15 11:05:05;;;;;;;10.07;6.87;;;29.40;49.20;;;;;;4390772;32;20071;-70
2021/08/15 11:07:41;;;;;;;9.77;5.90;;;29.40;47.30;;;;;;4402955;32;20101;-71
2021/08/15 11:10:12;;;;;;;9.07;5.82;;;29.40;48.20;;;;;;4390677;32;20425;-70
2021/08/15 11:13:16;;;;;;;9.43;5.62;;;29.40;45.80;;;;;;4403389;32;20078;-70
2021/08/15 11:15:42;;;;;;;11.25;6.22;;;29.40;45.40;;;;;;4390618;32;20069;-71
2021/08/15 11:18:15;;;;;;;13.07;5.85;;;29.50;45.70;;;;;;4390238;32;20058;-70
2021/08/15 11:20:49;;;;;;;9.95;6.40;;;29.70;41.80;;;;;;4390923;32;20629;-70
2021/08/15 11:23:21;;;;;;;10.80;6.15;;;29.70;42.30;;;;;;4378786;32;20070;-70
2021/08/15 11:25:47;;;;;;;11.75;6.45;;;29.50;41.50;;;;;;4390637;32;20234;-70
2021/08/15 11:28:15;;;;;;;10.13;5.90;;;29.50;39.90;;;;;;4390039;32;20092;-70
2021/08/15 11:30:41;;;;;;;8.15;4.65;;;29.70;41.30;;;;;;4390046;32;20068;-71
2021/08/15 11:33:09;;;;;;;11.95;5.55;;;28.80;42.40;;;;;;4389999;32;20092;-70
2021/08/15 11:35:45;;;;;;;8.85;5.70;;;29.00;43.90;;;;;;4377550;32;20077;-70
2021/08/15 11:38:14;;;;;;;11.12;5.78;;;29.70;42.70;;;;;;4390707;32;20077;-71
2021/08/15 11:40:53;;;;;;;10.13;5.50;;;30.20;39.20;;;;;;4377779;32;20108;-70
2021/08/15 11:43:22;;;;;;;7.45;4.25;;;30.40;39.50;;;;;;4366109;32;20076;-70
2021/08/15 11:45:54;;;;;;;8.75;5.62;;;30.20;39.80;;;;;;4377432;32;20160;-71
2021/08/15 11:48:22;;;;;;;7.85;4.80;;;30.10;40.70;;;;;;4390478;32;20149;-70
2021/08/15 11:50:52;;;;;;;8.88;5.68;;;29.80;40.60;;;;;;4390031;32;20175;-71
2021/08/15 11:53:24;;;;;;;8.27;4.78;;;30.30;39.10;;;;;;4390093;32;20077;-70
2021/08/15 11:55:52;;;;;;;9.25;5.95;;;30.10;38.10;;;;;;4377057;32;20518;-71
2021/08/15 11:58:19;;;;;;;12.25;6.47;;;29.80;34.10;;;;;;4388394;32;20073;-71
2021/08/15 12:00:45;;;;;;;13.13;6.55;;;30.20;33.70;;;;;;4381299;32;20097;-71
2021/08/15 12:03:19;;;;;;;8.40;5.07;;;31.20;31.70;;;;;;4367793;32;20090;-70
2021/08/15 12:05:57;;;;;;;11.85;6.10;;;31.30;32.10;;;;;;4367517;32;20078;-70
2021/08/15 12:08:38;;;;;;;10.82;6.62;;;30.70;30.40;;;;;;4367444;32;20073;-71
2021/08/15 12:11:28;;;;;;;10.60;5.90;;;30.60;32.40;;;;;;4380171;32;20081;-71
2021/08/15 12:14:12;;;;;;;11.77;6.25;;;31.00;30.20;;;;;;4380421;32;20085;-70
2021/08/15 12:16:40;;;;;;;14.20;6.68;;;30.70;29.90;;;;;;4369110;32;20074;-70
2021/08/15 12:19:07;;;;;;;11.40;6.25;;;30.80;29.40;;;;;;4379950;32;20513;-71
2021/08/15 12:21:35;;;;;;;10.35;6.12;;;30.30;29.10;;;;;;4367240;32;20081;-71
2021/08/15 12:24:17;;;;;;;12.48;6.15;;;31.00;29.40;;;;;;4366800;32;20081;-71
2021/08/15 12:27:06;;;;;;;11.12;5.75;;;30.90;29.10;;;;;;4379589;32;20093;-70
2021/08/15 12:29:44;;;;;;;10.68;5.37;;;30.90;29.40;;;;;;4379547;32;20236;-71
2021/08/15 12:32:21;;;;;;;11.90;5.55;;;30.80;30.00;;;;;;4368386;32;20077;-71
2021/08/15 12:35:01;;;;;;;9.77;6.03;;;31.30;28.70;;;;;;4380214;32;20070;-70
2021/08/15 12:37:46;;;;;;;10.20;5.45;;;31.40;28.20;;;;;;4367005;32;20113;-70
2021/08/15 12:40:19;;;;;;;10.77;6.00;;;31.60;28.00;;;;;;4380387;32;20076;-70
2021/08/15 12:42:58;;;;;;;12.45;6.47;;;31.50;28.90;;;;;;4366802;32;20102;-70
2021/08/15 12:45:32;;;;;;;11.00;5.60;;;31.40;28.80;;;;;;4366451;32;20459;-70
2021/08/15 12:48:01;;;;;;;11.30;6.62;;;30.70;27.60;;;;;;4366194;32;20090;-70
2021/08/15 12:50:27;;;;;;;11.55;6.45;;;30.90;27.90;;;;;;4366989;32;20073;-70
2021/08/15 12:52:58;;;;;;;13.95;6.40;;;31.10;27.70;;;;;;4366455;32;20074;-70
2021/08/15 12:55:35;;;;;;;14.65;6.80;;;31.00;26.60;;;;;;4379308;32;20089;-70
2021/08/15 12:58:13;;;;;;;11.48;6.15;;;31.20;26.20;;;;;;4378543;32;20527;-70
2021/08/15 13:00:47;;;;;;;12.60;7.32;;;31.00;26.70;;;;;;4379764;32;20093;-70
2021/08/15 13:03:16;;;;;;;;;;;30.80;26.50;;;;;;4379936;32;20089;-70
2021/08/15 13:05:44;;;;;;;14.32;8.15;;;31.00;26.80;;;;;;4366311;32;19981;-70
2021/08/15 13:08:11;;;;;;;12.80;7.07;;;31.30;26.20;;;;;;4378593;32;20104;-71
2021/08/15 13:10:37;;;;;;;15.02;7.72;;;31.60;26.30;;;;;;4377669;32;20081;-70
2021/08/15 13:13:04;;;;;;;16.77;8.57;;;30.30;27.00;;;;;;4378690;32;20097;-69
2021/08/15 13:15:31;;;;;;;14.38;7.30;;;30.30;27.60;;;;;;4378477;32;20140;-70
2021/08/15 13:17:57;;;;;;;14.43;8.02;;;30.70;27.20;;;;;;4378387;32;20530;-70
2021/08/15 13:20:29;;;;;;;15.13;7.00;;;31.00;26.40;;;;;;4391049;32;20507;-70
2021/08/15 13:22:55;;;;;;;13.35;7.43;;;30.70;26.50;;;;;;4379317;32;20153;-70
2021/08/15 13:25:21;;;;;;;16.00;8.00;;;30.30;27.00;;;;;;4365825;32;20081;-69